»·PEaware :: N2612B KRDD-KFOT

N2612B :: KRDD-KFOT

FLIGHT INFORMATION

Flight Status: Arrived
Operator: Privately registered:
United States
More flights under this callsign
Pilot: Nathan P. (3026)
Aircraft: Unknown
(B60T)
More flights by this aircraft type
Origin: KRDD Redding Mun
United States
Destination: KFOT Rohnerville
United States
More flights between these airports :: More routes between these airports
Route: +HOMAN2 RBL V195 FOT
File this flight plan on PilotEdge
Remarks:
Altitude:
(Current/Filed)
12,000ft
Speed:
(Current/Filed)
220kts
Departed: 18-Jan-18 03:28 PM
Arrived: 18-Jan-18 04:11 PM
Distance/Time
Traveled:
84nm/0:43
Distance/Time
To Go:
Arrived

Flight Plot

Page will automatically refresh every two minutes.

Flight plan parsing failed; only flown route is shown


Map Options




Map Legend


Flown Route
Filed Route
Departure Airport
Arrival Airport
Navaid (VOR, NDB)
Fix

Horizontal Profiles

Position Reports

Time Latitude Longitude Heading Altitude Ground
Speed
18-Jan-18 15:17 40.508643 -122.297943 181 505ft 0kts
18-Jan-18 15:18 40.508643 -122.297943 181 505ft 0kts
18-Jan-18 15:19 40.508642 -122.297943 181 505ft 0kts
18-Jan-18 15:20 40.508635 -122.297943 181 506ft 0kts
18-Jan-18 15:21 40.508629 -122.297943 181 506ft 0kts
18-Jan-18 15:22 40.508622 -122.297944 181 506ft 0kts
18-Jan-18 15:23 40.508615 -122.297944 181 506ft 0kts
18-Jan-18 15:24 40.508609 -122.297944 181 506ft 0kts
18-Jan-18 15:25 40.508602 -122.297944 181 506ft 0kts
18-Jan-18 15:26 40.508595 -122.297945 181 506ft 0kts
18-Jan-18 15:27 40.508588 -122.297945 181 506ft 0kts
18-Jan-18 15:28 40.508533 -122.298052 274 506ft 0kts
18-Jan-18 15:29 40.508531 -122.298327 268 506ft 0kts
18-Jan-18 15:30 40.508663 -122.296843 54 505ft 12kts
18-Jan-18 15:31 40.515019 -122.296302 358 506ft 26kts
18-Jan-18 15:32 40.520245 -122.295873 80 506ft 0kts
18-Jan-18 15:33 40.520245 -122.295867 80 506ft 0kts
18-Jan-18 15:34 40.517938 -122.294871 178 506ft 68kts
18-Jan-18 15:35 40.476214 -122.292569 173 1846ft 192kts
18-Jan-18 15:36 40.456760 -122.252539 116 4791ft 113kts
18-Jan-18 15:37 40.443421 -122.213530 133 8052ft 130kts
18-Jan-18 15:38 40.423376 -122.169051 136 10889ft 149kts
18-Jan-18 15:39 40.390379 -122.131570 197 11999ft 174kts
18-Jan-18 15:40 40.347197 -122.149599 200 11996ft 159kts
18-Jan-18 15:41 40.301794 -122.165379 200 12005ft 181kts
18-Jan-18 15:42 40.252543 -122.182580 200 12007ft 184kts
18-Jan-18 15:43 40.203753 -122.199638 200 12010ft 180kts
18-Jan-18 15:44 40.155062 -122.216663 200 12011ft 180kts
18-Jan-18 15:45 40.111587 -122.243853 236 12018ft 177kts
18-Jan-18 15:46 40.120942 -122.310641 279 12014ft 202kts
18-Jan-18 15:47 40.141152 -122.378915 279 12013ft 201kts
18-Jan-18 15:48 40.161418 -122.447542 279 12009ft 201kts
18-Jan-18 15:49 40.181580 -122.515918 278 12008ft 202kts
18-Jan-18 15:50 40.201731 -122.584587 278 12006ft 201kts
18-Jan-18 15:51 40.221694 -122.652819 278 12006ft 201kts
18-Jan-18 15:52 40.241668 -122.721103 278 12006ft 201kts
18-Jan-18 15:53 40.261678 -122.789710 278 12007ft 201kts
18-Jan-18 15:54 40.281622 -122.858198 277 12009ft 201kts
18-Jan-18 15:55 40.301437 -122.926808 277 12011ft 201kts
18-Jan-18 15:56 40.321354 -122.995773 277 12017ft 202kts
18-Jan-18 15:57 40.341236 -123.064695 277 12016ft 202kts
18-Jan-18 15:58 40.361168 -123.133934 276 12019ft 202kts
18-Jan-18 15:59 40.381014 -123.203082 276 12023ft 203kts
18-Jan-18 16:00 40.400867 -123.272400 276 12021ft 203kts
18-Jan-18 16:01 40.420753 -123.342057 276 12026ft 203kts
18-Jan-18 16:02 40.440555 -123.411599 276 12031ft 204kts
18-Jan-18 16:03 40.460274 -123.481271 275 12036ft 203kts
18-Jan-18 16:04 40.480153 -123.551253 275 12041ft 204kts
18-Jan-18 16:05 40.499942 -123.620569 275 12035ft 182kts
18-Jan-18 16:06 40.508102 -123.673837 241 11370ft 156kts
18-Jan-18 16:07 40.495327 -123.723905 246 9383ft 133kts
18-Jan-18 16:08 40.484538 -123.767186 248 7478ft 129kts
18-Jan-18 16:09 40.473156 -123.812479 248 5483ft 132kts
18-Jan-18 16:10 40.461602 -123.858426 248 4687ft 143kts
18-Jan-18 16:11 40.471467 -123.904849 292 3779ft 146kts
18-Jan-18 16:12 40.488901 -123.950080 293 2828ft 125kts
18-Jan-18 16:13 40.504591 -123.992225 293 2757ft 125kts
18-Jan-18 16:14 40.518276 -124.032696 290 2243ft 127kts
18-Jan-18 16:15 40.532270 -124.076616 290 1426ft 126kts
18-Jan-18 16:16 40.544905 -124.117000 301 607ft 110kts
18-Jan-18 16:17 40.556214 -124.136567 308 358ft 24kts
18-Jan-18 16:18 40.556222 -124.135303 125 358ft 17kts
18-Jan-18 16:19 40.554824 -124.131952 85 358ft 3kts
18-Jan-18 16:20 40.554787 -124.131837 125 358ft 0kts
18-Jan-18 16:21 40.554787 -124.131837 125 358ft 0kts
18-Jan-18 16:22 40.554787 -124.131837 125 358ft 0kts
18-Jan-18 16:23 40.554787 -124.131837 125 358ft 0kts
18-Jan-18 16:24 40.554787 -124.131837 125 358ft 0kts
18-Jan-18 16:25 40.554787 -124.131837 125 358ft 0kts
18-Jan-18 16:26 40.554787 -124.131837 125 358ft 0kts
18-Jan-18 16:27 40.554787 -124.131837 125 358ft 0kts
18-Jan-18 16:28 40.554787 -124.131837 125 358ft 0kts
18-Jan-18 16:29 40.554787 -124.131837 125 358ft 0kts
18-Jan-18 16:30 40.554787 -124.131837 125 358ft 0kts
18-Jan-18 16:31 40.554787 -124.131837 125 358ft 0kts

Navigation Log

Ident Type
Flight plan parsing failed, navigation log unavailable